Time,TemperatureF,DewpointF,PressureIn,WindDirection,WindDirectionDegrees,WindSpeedMPH,WindSpeedGustMPH,Humidity,HourlyPrecipIn,Conditions,Clouds,dailyrainin,SoftwareType,DateUTC
2013-05-10 00:00:00,59.0,57.0,30.06,West,267,0.0,0.0,93,0.00,,,0.00,Wunderground v.1.15,2013-05-10 04:00:00,
2013-05-10 00:06:00,59.0,57.3,30.06,West,267,0.0,0.0,94,0.00,,,0.00,Wunderground v.1.15,2013-05-10 04:06:00,
2013-05-10 00:10:00,59.0,57.3,30.06,West,267,0.0,0.0,94,0.00,,,0.00,Wunderground v.1.15,2013-05-10 04:10:00,
2013-05-10 00:15:00,59.0,57.3,30.06,West,267,0.0,0.0,94,0.00,,,0.00,Wunderground v.1.15,2013-05-10 04:15:00,
2013-05-10 00:20:00,58.9,57.2,30.06,West,267,0.0,0.0,94,0.00,,,0.00,Wunderground v.1.15,2013-05-10 04:20:00,
2013-05-10 00:25:00,58.8,57.1,30.07,West,267,0.0,0.0,94,0.00,,,0.00,Wunderground v.1.15,2013-05-10 04:25:00,
2013-05-10 00:30:00,58.6,56.9,30.07,West,267,0.0,0.0,94,0.00,,,0.00,Wunderground v.1.15,2013-05-10 04:30:00,
2013-05-10 00:40:00,58.4,56.7,30.07,West,267,0.0,0.0,94,0.00,,,0.00,Wunderground v.1.15,2013-05-10 04:40:00,
2013-05-10 00:45:00,58.4,57.0,30.07,West,267,0.0,0.0,95,0.00,,,0.00,Wunderground v.1.15,2013-05-10 04:45:00,
2013-05-10 00:50:00,58.3,56.9,30.07,West,267,0.0,0.0,95,0.00,,,0.00,Wunderground v.1.15,2013-05-10 04:50:00,
2013-05-10 01:00:00,58.2,56.8,30.07,West,267,0.0,0.0,95,0.00,,,0.00,Wunderground v.1.15,2013-05-10 05:00:00,
2013-05-10 01:06:00,58.1,56.7,30.07,West,267,0.0,0.0,95,0.00,,,0.00,Wunderground v.1.15,2013-05-10 05:06:00,
2013-05-10 01:15:00,57.9,56.5,30.07,West,267,0.0,0.0,95,0.00,,,0.00,Wunderground v.1.15,2013-05-10 05:15:00,
2013-05-10 01:25:00,57.7,56.3,30.07,West,267,0.0,0.0,95,0.00,,,0.00,Wunderground v.1.15,2013-05-10 05:25:00,
2013-05-10 01:30:00,57.7,56.3,30.07,West,267,0.0,0.0,95,0.00,,,0.00,Wunderground v.1.15,2013-05-10 05:30:00,
2013-05-10 01:35:00,57.6,56.2,30.07,West,267,0.0,0.0,95,0.00,,,0.00,Wunderground v.1.15,2013-05-10 05:35:00,
2013-05-10 01:40:00,57.5,56.1,30.07,West,267,0.0,0.0,95,0.00,,,0.00,Wunderground v.1.15,2013-05-10 05:40:00,
2013-05-10 01:50:00,57.3,56.2,30.07,West,267,0.0,0.0,96,0.00,,,0.00,Wunderground v.1.15,2013-05-10 05:50:00,
2013-05-10 01:55:00,57.2,56.1,30.06,West,267,0.0,0.0,96,0.00,,,0.00,Wunderground v.1.15,2013-05-10 05:55:00,
2013-05-10 02:05:00,57.1,56.0,30.06,West,267,0.0,0.0,96,0.00,,,0.00,Wunderground v.1.15,2013-05-10 06:05:00,
2013-05-10 02:15:00,57.0,55.9,30.06,West,267,0.0,0.0,96,0.00,,,0.00,Wunderground v.1.15,2013-05-10 06:15:00,
2013-05-10 02:20:00,56.9,55.8,30.07,West,267,0.0,0.0,96,0.00,,,0.00,Wunderground v.1.15,2013-05-10 06:20:00,
2013-05-10 02:30:00,56.7,55.6,30.07,West,267,0.0,0.0,96,0.00,,,0.00,Wunderground v.1.15,2013-05-10 06:30:00,
2013-05-10 02:35:00,56.6,55.5,30.06,West,267,0.0,0.0,96,0.00,,,0.00,Wunderground v.1.15,2013-05-10 06:35:00,
2013-05-10 02:45:00,56.4,55.3,30.07,West,267,0.0,0.0,96,0.00,,,0.00,Wunderground v.1.15,2013-05-10 06:45:00,
2013-05-10 02:50:00,56.3,55.2,30.06,West,267,0.0,0.0,96,0.00,,,0.00,Wunderground v.1.15,2013-05-10 06:50:00,
2013-05-10 02:55:00,56.3,55.2,30.06,West,267,0.0,0.0,96,0.00,,,0.00,Wunderground v.1.15,2013-05-10 06:55:00,
2013-05-10 03:06:00,56.3,55.5,30.05,West,267,0.0,0.0,97,0.00,,,0.00,Wunderground v.1.15,2013-05-10 07:06:00,
2013-05-10 03:15:00,56.3,55.5,30.05,West,267,0.0,0.0,97,0.00,,,0.00,Wunderground v.1.15,2013-05-10 07:15:00,
2013-05-10 03:20:00,56.2,55.4,30.05,West,267,0.0,0.0,97,0.00,,,0.00,Wunderground v.1.15,2013-05-10 07:20:00,
2013-05-10 03:25:00,56.1,55.0,30.05,West,267,0.0,0.0,96,0.00,,,0.00,Wunderground v.1.15,2013-05-10 07:25:00,
2013-05-10 03:35:00,55.8,54.7,30.06,West,267,0.0,0.0,96,0.00,,,0.00,Wunderground v.1.15,2013-05-10 07:35:00,
2013-05-10 03:40:00,55.7,54.9,30.06,West,267,0.0,0.0,97,0.00,,,0.00,Wunderground v.1.15,2013-05-10 07:40:00,
2013-05-10 03:45:00,55.5,54.7,30.06,West,267,0.0,0.0,97,0.00,,,0.00,Wunderground v.1.15,2013-05-10 07:45:00,
2013-05-10 03:55:00,55.3,54.2,30.06,West,267,0.0,0.0,96,0.00,,,0.00,Wunderground v.1.15,2013-05-10 07:55:00,
2013-05-10 04:06:00,55.0,54.2,30.06,West,267,0.0,0.0,97,0.00,,,0.00,Wunderground v.1.15,2013-05-10 08:06:00,
2013-05-10 04:15:00,54.8,54.0,30.06,West,267,0.0,0.0,97,0.00,,,0.00,Wunderground v.1.15,2013-05-10 08:15:00,
2013-05-10 04:20:00,54.8,54.0,30.06,West,267,0.0,0.0,97,0.00,,,0.00,Wunderground v.1.15,2013-05-10 08:20:00,
2013-05-10 04:25:00,54.8,54.0,30.06,West,267,0.0,0.0,97,0.00,,,0.00,Wunderground v.1.15,2013-05-10 08:25:00,
2013-05-10 04:30:00,54.8,54.0,30.06,West,267,0.0,0.0,97,0.00,,,0.00,Wunderground v.1.15,2013-05-10 08:30:00,
2013-05-10 04:40:00,54.7,53.9,30.06,West,267,0.0,0.0,97,0.00,,,0.00,Wunderground v.1.15,2013-05-10 08:40:00,
2013-05-10 04:45:00,54.7,53.9,30.06,West,267,0.0,0.0,97,0.00,,,0.00,Wunderground v.1.15,2013-05-10 08:45:00,
2013-05-10 04:50:00,54.7,53.9,30.05,West,267,0.0,0.0,97,0.00,,,0.00,Wunderground v.1.15,2013-05-10 08:50:00,
2013-05-10 05:00:00,54.6,53.8,30.05,West,267,0.0,0.0,97,0.00,,,0.00,Wunderground v.1.15,2013-05-10 09:00:00,
2013-05-10 05:06:00,54.6,53.8,30.05,West,267,0.0,0.0,97,0.00,,,0.00,Wunderground v.1.15,2013-05-10 09:06:00,
2013-05-10 05:15:00,54.5,53.7,30.05,West,267,0.0,0.0,97,0.00,,,0.00,Wunderground v.1.15,2013-05-10 09:15:00,
2013-05-10 05:25:00,54.4,53.6,30.05,West,267,0.0,0.0,97,0.00,,,0.00,Wunderground v.1.15,2013-05-10 09:25:00,
2013-05-10 05:30:00,54.2,53.4,30.05,West,267,0.0,0.0,97,0.00,,,0.00,Wunderground v.1.15,2013-05-10 09:30:00,
2013-05-10 05:35:00,54.2,53.4,30.05,West,267,0.0,0.0,97,0.00,,,0.00,Wunderground v.1.15,2013-05-10 09:35:00,
2013-05-10 05:45:00,53.9,53.1,30.05,West,267,0.0,0.0,97,0.00,,,0.00,Wunderground v.1.15,2013-05-10 09:45:00,
2013-05-10 05:50:00,53.9,53.1,30.05,West,267,0.0,0.0,97,0.00,,,0.00,Wunderground v.1.15,2013-05-10 09:50:00,
2013-05-10 05:55:00,53.8,53.0,30.05,West,267,0.0,0.0,97,0.00,,,0.00,Wunderground v.1.15,2013-05-10 09:55:00,
2013-05-10 06:00:00,53.7,52.9,30.05,West,267,0.0,0.0,97,0.00,,,0.00,Wunderground v.1.15,2013-05-10 10:00:00,
2013-05-10 06:06:00,53.6,52.8,30.06,West,267,0.0,0.0,97,0.00,,,0.00,Wunderground v.1.15,2013-05-10 10:06:00,
2013-05-10 06:15:00,53.5,52.7,30.06,West,267,0.0,0.0,97,0.00,,,0.00,Wunderground v.1.15,2013-05-10 10:15:00,
2013-05-10 06:20:00,53.5,52.7,30.06,West,267,0.0,0.0,97,0.00,,,0.00,Wunderground v.1.15,2013-05-10 10:20:00,
2013-05-10 06:30:00,53.4,52.6,30.06,West,267,0.0,0.0,97,0.00,,,0.00,Wunderground v.1.15,2013-05-10 10:30:00,
2013-05-10 06:35:00,53.5,52.9,30.06,West,267,0.0,0.0,98,0.00,,,0.00,Wunderground v.1.15,2013-05-10 10:35:00,
2013-05-10 06:40:00,53.6,53.0,30.06,West,267,0.0,0.0,98,0.00,,,0.00,Wunderground v.1.15,2013-05-10 10:40:00,
2013-05-10 06:50:00,53.7,53.1,30.06,West,267,0.0,0.0,98,0.00,,,0.00,Wunderground v.1.15,2013-05-10 10:50:00,
2013-05-10 06:55:00,53.7,53.1,30.06,West,267,0.0,0.0,98,0.00,,,0.00,Wunderground v.1.15,2013-05-10 10:55:00,
2013-05-10 07:00:00,53.7,53.1,30.06,West,267,0.0,0.0,98,0.00,,,0.00,Wunderground v.1.15,2013-05-10 11:00:00,
2013-05-10 07:06:00,53.8,53.2,30.06,West,267,0.0,0.0,98,0.00,,,0.00,Wunderground v.1.15,2013-05-10 11:06:00,
2013-05-10 07:15:00,54.0,53.4,30.07,West,267,0.0,0.0,98,0.00,,,0.00,Wunderground v.1.15,2013-05-10 11:15:00,
2013-05-10 07:20:00,54.2,53.6,30.06,West,267,0.0,0.0,98,0.00,,,0.00,Wunderground v.1.15,2013-05-10 11:20:00,
2013-05-10 07:25:00,54.5,53.9,30.06,West,267,0.0,0.0,98,0.00,,,0.00,Wunderground v.1.15,2013-05-10 11:25:00,
2013-05-10 07:35:00,55.3,55.0,30.06,West,267,0.0,0.0,99,0.00,,,0.00,Wunderground v.1.15,2013-05-10 11:35:00,
2013-05-10 07:40:00,55.6,55.3,30.06,West,267,0.0,0.0,99,0.00,,,0.00,Wunderground v.1.15,2013-05-10 11:40:00,
2013-05-10 07:45:00,56.0,55.7,30.06,West,267,0.0,0.0,99,0.00,,,0.00,Wunderground v.1.15,2013-05-10 11:45:00,
2013-05-10 07:55:00,56.8,56.5,30.06,West,267,0.0,0.0,99,0.00,,,0.00,Wunderground v.1.15,2013-05-10 11:55:00,
2013-05-10 08:00:00,57.1,56.8,30.06,West,267,0.0,0.0,99,0.00,,,0.00,Wunderground v.1.15,2013-05-10 12:00:00,
2013-05-10 08:06:00,57.4,57.1,30.06,West,267,0.0,0.0,99,0.00,,,0.00,Wunderground v.1.15,2013-05-10 12:06:00,
2013-05-10 08:15:00,58.1,57.8,30.07,West,267,0.0,0.0,99,0.00,,,0.00,Wunderground v.1.15,2013-05-10 12:15:00,
2013-05-10 08:25:00,59.0,58.7,30.06,West,267,0.0,0.0,99,0.00,,,0.00,Wunderground v.1.15,2013-05-10 12:25:00,
2013-05-10 08:30:00,59.5,59.5,30.06,West,267,0.0,0.0,100,0.00,,,0.00,Wunderground v.1.15,2013-05-10 12:30:00,
2013-05-10 08:35:00,60.0,60.0,30.06,West,267,0.0,0.0,100,0.00,,,0.00,Wunderground v.1.15,2013-05-10 12:35:00,
2013-05-10 08:40:00,60.5,60.2,30.06,West,267,0.0,0.0,99,0.00,,,0.00,Wunderground v.1.15,2013-05-10 12:40:00,
2013-05-10 08:50:00,61.5,61.5,30.07,West,267,0.0,0.0,100,0.00,,,0.00,Wunderground v.1.15,2013-05-10 12:50:00,
2013-05-10 09:00:00,62.5,62.5,30.07,West,267,0.0,0.0,100,0.00,,,0.00,Wunderground v.1.15,2013-05-10 13:00:00,
2013-05-10 09:06:00,62.8,62.5,30.07,SW,218,0.0,0.0,99,0.00,,,0.00,Wunderground v.1.15,2013-05-10 13:06:00,
2013-05-10 09:15:00,63.9,63.0,30.07,SW,227,0.0,0.0,97,0.00,,,0.00,Wunderground v.1.15,2013-05-10 13:15:00,
2013-05-10 09:20:00,64.4,63.2,30.07,SW,227,0.0,0.0,96,0.00,,,0.00,Wunderground v.1.15,2013-05-10 13:20:00,
2013-05-10 09:25:00,64.8,63.0,30.06,SW,227,0.0,0.0,94,0.00,,,0.00,Wunderground v.1.15,2013-05-10 13:25:00,
2013-05-10 09:35:00,66.3,63.0,30.06,SW,227,0.0,0.0,89,0.00,,,0.00,Wunderground v.1.15,2013-05-10 13:35:00,
2013-05-10 09:40:00,67.1,63.1,30.06,SW,227,0.0,0.0,87,0.00,,,0.00,Wunderground v.1.15,2013-05-10 13:40:00,
2013-05-10 09:50:00,68.3,63.3,30.06,SW,227,0.0,0.0,84,0.00,,,0.00,Wunderground v.1.15,2013-05-10 13:50:00,
2013-05-10 09:55:00,69.0,63.3,30.06,SW,227,0.0,0.0,82,0.00,,,0.00,Wunderground v.1.15,2013-05-10 13:55:00,
2013-05-10 10:00:00,69.7,63.3,30.06,SW,227,0.0,0.0,80,0.00,,,0.00,Wunderground v.1.15,2013-05-10 14:00:00,
2013-05-10 10:06:00,70.3,63.1,30.06,SW,227,0.0,0.0,78,0.00,,,0.00,Wunderground v.1.15,2013-05-10 14:06:00,
2013-05-10 10:15:00,71.3,63.0,30.06,SW,227,0.0,0.0,75,0.00,,,0.00,Wunderground v.1.15,2013-05-10 14:15:00,
2013-05-10 10:20:00,71.9,63.5,30.06,SW,227,0.0,0.0,75,0.00,,,0.00,Wunderground v.1.15,2013-05-10 14:20:00,
2013-05-10 10:25:00,72.4,63.6,30.06,SW,227,0.0,1.0,74,0.00,,,0.00,Wunderground v.1.15,2013-05-10 14:25:00,
2013-05-10 10:35:00,73.8,63.4,30.06,SW,227,1.0,2.0,70,0.00,,,0.00,Wunderground v.1.15,2013-05-10 14:35:00,
2013-05-10 10:40:00,74.4,62.7,30.06,SSW,209,1.0,1.0,67,0.00,,,0.00,Wunderground v.1.15,2013-05-10 14:40:00,
2013-05-10 10:45:00,75.1,63.0,30.06,South,185,1.0,1.0,66,0.00,,,0.00,Wunderground v.1.15,2013-05-10 14:45:00,
2013-05-10 10:55:00,75.9,61.9,30.06,SSW,205,1.0,2.0,62,0.00,,,0.00,Wunderground v.1.15,2013-05-10 14:55:00,
2013-05-10 11:00:00,76.4,62.9,30.05,West,264,1.0,1.0,63,0.00,,,0.00,Wunderground v.1.15,2013-05-10 15:00:00,
2013-05-10 11:05:00,76.7,63.2,30.06,SSE,153,1.0,4.0,63,0.00,,,0.00,Wunderground v.1.15,2013-05-10 15:05:00,
2013-05-10 11:15:00,77.4,62.9,30.05,WNW,292,1.0,1.0,61,0.00,,,0.00,Wunderground v.1.15,2013-05-10 15:15:00,
2013-05-10 11:20:00,77.9,63.4,30.05,South,177,1.0,2.0,61,0.00,,,0.00,Wunderground v.1.15,2013-05-10 15:20:00,
2013-05-10 11:30:00,78.7,64.6,30.05,SW,215,1.0,1.0,62,0.00,,,0.00,Wunderground v.1.15,2013-05-10 15:30:00,
2013-05-10 11:35:00,78.7,62.7,30.05,SW,215,1.0,1.0,58,0.00,,,0.00,Wunderground v.1.15,2013-05-10 15:35:00,
2013-05-10 11:45:00,79.0,63.4,30.05,SSE,165,1.0,1.0,59,0.00,,,0.00,Wunderground v.1.15,2013-05-10 15:45:00,
2013-05-10 11:50:00,79.3,63.2,30.04,SSE,165,1.0,1.0,58,0.00,,,0.00,Wunderground v.1.15,2013-05-10 15:50:00,
2013-05-10 11:55:00,79.5,63.4,30.04,South,182,1.0,1.0,58,0.00,,,0.00,Wunderground v.1.15,2013-05-10 15:55:00,
2013-05-10 12:00:00,79.7,63.1,30.04,South,190,1.0,1.0,57,0.00,,,0.00,Wunderground v.1.15,2013-05-10 16:00:00,
2013-05-10 12:05:00,79.9,62.3,30.04,SW,215,0.0,2.0,55,0.00,,,0.00,Wunderground v.1.15,2013-05-10 16:05:00,
2013-05-10 12:15:00,80.6,64.5,30.03,South,189,2.0,2.0,58,0.00,,,0.00,Wunderground v.1.15,2013-05-10 16:15:00,
2013-05-10 12:25:00,80.8,63.6,30.03,SSE,155,1.0,3.0,56,0.00,,,0.00,Wunderground v.1.15,2013-05-10 16:25:00,
2013-05-10 12:30:00,81.1,64.4,30.03,SW,223,1.0,1.0,57,0.00,,,0.00,Wunderground v.1.15,2013-05-10 16:30:00,
2013-05-10 12:36:00,81.4,64.2,30.03,WSW,240,1.0,1.0,56,0.00,,,0.00,Wunderground v.1.15,2013-05-10 16:36:00,
2013-05-10 12:45:00,81.6,63.3,30.02,West,275,1.0,5.0,54,0.00,,,0.00,Wunderground v.1.15,2013-05-10 16:45:00,
2013-05-10 12:50:00,81.8,63.0,30.02,South,189,1.0,1.0,53,0.00,,,0.00,Wunderground v.1.15,2013-05-10 16:50:00,
2013-05-10 12:55:00,82.0,63.2,30.02,SSW,211,1.0,1.0,53,0.00,,,0.00,Wunderground v.1.15,2013-05-10 16:55:00,
2013-05-10 13:00:00,82.5,63.6,30.02,SE,135,2.0,2.0,53,0.00,,,0.00,Wunderground v.1.15,2013-05-10 17:00:00,
2013-05-10 13:06:00,82.6,63.7,30.02,WNW,301,2.0,2.0,53,0.00,,,0.00,Wunderground v.1.15,2013-05-10 17:06:00,
2013-05-10 13:15:00,83.0,63.6,30.02,SSW,213,1.0,1.0,52,0.00,,,0.00,Wunderground v.1.15,2013-05-10 17:15:00,
2013-05-10 13:25:00,83.5,65.1,30.02,South,179,1.0,4.0,54,0.00,,,0.00,Wunderground v.1.15,2013-05-10 17:25:00,
2013-05-10 13:30:00,83.9,64.9,30.02,South,186,1.0,1.0,53,0.00,,,0.00,Wunderground v.1.15,2013-05-10 17:30:00,
2013-05-10 13:35:00,84.0,64.5,30.02,SSW,205,2.0,2.0,52,0.00,,,0.00,Wunderground v.1.15,2013-05-10 17:35:00,
2013-05-10 13:40:00,84.2,64.1,30.02,SE,146,2.0,2.0,51,0.00,,,0.00,Wunderground v.1.15,2013-05-10 17:40:00,
2013-05-10 13:45:00,84.3,64.2,30.02,SSW,205,1.0,4.0,51,0.00,,,0.00,Wunderground v.1.15,2013-05-10 17:45:00,
2013-05-10 13:55:00,84.7,64.6,30.01,NE,44,2.0,2.0,51,0.00,,,0.00,Wunderground v.1.15,2013-05-10 17:55:00,
2013-05-10 14:00:00,84.7,65.1,30.01,ESE,118,1.0,1.0,52,0.00,,,0.00,Wunderground v.1.15,2013-05-10 18:00:00,
2013-05-10 14:06:00,84.7,64.0,30.01,South,180,2.0,2.0,50,0.00,,,0.00,Wunderground v.1.15,2013-05-10 18:06:00,
2013-05-10 14:15:00,84.2,64.7,30.00,WSW,252,1.0,2.0,52,0.00,,,0.00,Wunderground v.1.15,2013-05-10 18:15:00,
2013-05-10 14:20:00,84.1,63.5,30.00,ESE,109,1.0,3.0,50,0.00,,,0.00,Wunderground v.1.15,2013-05-10 18:20:00,
2013-05-10 14:25:00,84.1,64.0,30.00,ESE,111,1.0,3.0,51,0.00,,,0.00,Wunderground v.1.15,2013-05-10 18:25:00,
2013-05-10 14:35:00,84.4,63.7,30.00,SE,140,1.0,2.0,50,0.00,,,0.00,Wunderground v.1.15,2013-05-10 18:35:00,
2013-05-10 14:40:00,84.1,63.5,29.99,East,95,2.0,2.0,50,0.00,,,0.00,Wunderground v.1.15,2013-05-10 18:40:00,
2013-05-10 14:45:00,83.8,65.4,29.99,South,172,1.0,2.0,54,0.00,,,0.00,Wunderground v.1.15,2013-05-10 18:45:00,
2013-05-10 14:50:00,84.0,63.9,30.00,SW,221,1.0,1.0,51,0.00,,,0.00,Wunderground v.1.15,2013-05-10 18:50:00,
2013-05-10 14:55:00,83.9,62.7,29.99,SSW,192,1.0,1.0,49,0.00,,,0.00,Wunderground v.1.15,2013-05-10 18:55:00,
2013-05-10 15:06:00,84.7,65.1,29.99,SW,226,1.0,1.0,52,0.00,,,0.00,Wunderground v.1.15,2013-05-10 19:06:00,
2013-05-10 15:15:00,85.0,63.1,29.99,South,171,2.0,2.0,48,0.00,,,0.00,Wunderground v.1.15,2013-05-10 19:15:00,
2013-05-10 15:20:00,85.1,63.8,29.98,South,171,1.0,1.0,49,0.00,,,0.00,Wunderground v.1.15,2013-05-10 19:20:00,
2013-05-10 15:25:00,85.4,64.6,29.98,SE,138,1.0,3.0,50,0.00,,,0.00,Wunderground v.1.15,2013-05-10 19:25:00,
2013-05-10 15:35:00,85.2,63.9,29.98,SSW,203,2.0,2.0,49,0.00,,,0.00,Wunderground v.1.15,2013-05-10 19:35:00,
2013-05-10 15:40:00,85.1,63.2,29.98,SW,229,1.0,1.0,48,0.00,,,0.00,Wunderground v.1.15,2013-05-10 19:40:00,
2013-05-10 15:45:00,85.1,63.2,29.98,SSE,154,1.0,4.0,48,0.00,,,0.00,Wunderground v.1.15,2013-05-10 19:45:00,
2013-05-10 15:50:00,84.8,64.1,29.98,West,263,2.0,2.0,50,0.00,,,0.00,Wunderground v.1.15,2013-05-10 19:50:00,
2013-05-10 16:00:00,85.3,63.4,29.98,ESE,110,1.0,2.0,48,0.00,,,0.00,Wunderground v.1.15,2013-05-10 20:00:00,
2013-05-10 16:06:00,85.2,62.7,29.98,SSE,150,2.0,2.0,47,0.00,,,0.00,Wunderground v.1.15,2013-05-10 20:06:00,
2013-05-10 16:15:00,84.2,63.0,29.97,SW,227,2.0,4.0,49,0.00,,,0.00,Wunderground v.1.15,2013-05-10 20:15:00,
2013-05-10 16:20:00,83.7,61.9,29.97,WSW,244,2.0,6.0,48,0.00,,,0.00,Wunderground v.1.15,2013-05-10 20:20:00,
2013-05-10 16:30:00,83.9,63.8,29.97,SW,230,1.0,1.0,51,0.00,,,0.00,Wunderground v.1.15,2013-05-10 20:30:00,
2013-05-10 16:35:00,84.3,63.1,29.97,SE,140,1.0,1.0,49,0.00,,,0.00,Wunderground v.1.15,2013-05-10 20:35:00,
2013-05-10 16:40:00,84.5,63.8,29.97,South,184,1.0,3.0,50,0.00,,,0.00,Wunderground v.1.15,2013-05-10 20:40:00,
2013-05-10 16:45:00,84.4,64.3,29.96,ESE,105,1.0,3.0,51,0.00,,,0.00,Wunderground v.1.15,2013-05-10 20:45:00,
2013-05-10 16:50:00,84.3,63.1,29.97,SE,144,1.0,1.0,49,0.00,,,0.00,Wunderground v.1.15,2013-05-10 20:50:00,
2013-05-10 17:00:00,84.6,63.3,29.97,SSW,200,1.0,2.0,49,0.00,,,0.00,Wunderground v.1.15,2013-05-10 21:00:00,
2013-05-10 17:06:00,84.9,64.8,29.96,SW,219,1.0,2.0,51,0.00,,,0.00,Wunderground v.1.15,2013-05-10 21:06:00,
2013-05-10 17:15:00,84.4,64.3,29.96,SW,227,1.0,1.0,51,0.00,,,0.00,Wunderground v.1.15,2013-05-10 21:15:00,
2013-05-10 17:20:00,84.3,64.8,29.96,NW,313,0.0,0.0,52,0.00,,,0.00,Wunderground v.1.15,2013-05-10 21:20:00,
2013-05-10 17:30:00,84.3,63.6,29.95,NW,313,0.0,0.0,50,0.00,,,0.00,Wunderground v.1.15,2013-05-10 21:30:00,
2013-05-10 17:35:00,84.5,63.8,29.95,SSE,153,0.0,2.0,50,0.00,,,0.00,Wunderground v.1.15,2013-05-10 21:35:00,
2013-05-10 17:45:00,84.2,63.0,29.96,SE,141,2.0,3.0,49,0.00,,,0.00,Wunderground v.1.15,2013-05-10 21:45:00,
2013-05-10 17:50:00,83.8,62.6,29.95,South,178,2.0,2.0,49,0.00,,,0.00,Wunderground v.1.15,2013-05-10 21:50:00,
2013-05-10 17:55:00,83.6,62.4,29.95,SE,136,2.0,2.0,49,0.00,,,0.00,Wunderground v.1.15,2013-05-10 21:55:00,
2013-05-10 18:00:00,83.4,63.4,29.95,SSW,213,1.0,2.0,51,0.00,,,0.00,Wunderground v.1.15,2013-05-10 22:00:00,
2013-05-10 18:06:00,83.2,62.6,29.95,SW,227,1.0,2.0,50,0.00,,,0.00,Wunderground v.1.15,2013-05-10 22:06:00,
2013-05-10 18:10:00,83.2,62.6,29.95,SW,235,1.0,1.0,50,0.00,,,0.00,Wunderground v.1.15,2013-05-10 22:10:00,
2013-05-10 18:15:00,83.0,63.6,29.94,SW,235,1.0,1.0,52,0.00,,,0.00,Wunderground v.1.15,2013-05-10 22:15:00,
2013-05-10 18:25:00,82.6,63.7,29.94,SW,235,0.0,0.0,53,0.00,,,0.00,Wunderground v.1.15,2013-05-10 22:25:00,
2013-05-10 18:30:00,82.3,64.5,29.94,SW,235,0.0,0.0,55,0.00,,,0.00,Wunderground v.1.15,2013-05-10 22:30:00,
2013-05-10 18:35:00,81.9,64.1,29.94,South,185,0.0,0.0,55,0.00,,,0.00,Wunderground v.1.15,2013-05-10 22:35:00,
2013-05-10 18:40:00,81.6,63.9,29.94,South,185,0.0,0.0,55,0.00,,,0.00,Wunderground v.1.15,2013-05-10 22:40:00,
2013-05-10 18:45:00,81.3,64.1,29.94,South,186,0.0,0.0,56,0.00,,,0.00,Wunderground v.1.15,2013-05-10 22:45:00,
2013-05-10 18:55:00,80.9,64.2,29.94,SSW,205,0.0,0.0,57,0.00,,,0.00,Wunderground v.1.15,2013-05-10 22:55:00,
2013-05-10 19:00:00,80.6,64.5,29.94,SSW,205,0.0,0.0,58,0.00,,,0.00,Wunderground v.1.15,2013-05-10 23:00:00,
2013-05-10 19:06:00,80.3,63.7,29.95,SSW,205,0.0,0.0,57,0.00,,,0.00,Wunderground v.1.15,2013-05-10 23:06:00,
2013-05-10 19:15:00,79.8,64.2,29.95,SSW,205,0.0,0.0,59,0.00,,,0.00,Wunderground v.1.15,2013-05-10 23:15:00,
2013-05-10 19:20:00,79.5,63.9,29.95,SSW,205,0.0,0.0,59,0.00,,,0.00,Wunderground v.1.15,2013-05-10 23:20:00,
2013-05-10 19:25:00,79.2,63.6,29.95,SSW,205,0.0,0.0,59,0.00,,,0.00,Wunderground v.1.15,2013-05-10 23:25:00,
2013-05-10 19:30:00,78.9,64.3,29.95,SSW,205,0.0,0.0,61,0.00,,,0.00,Wunderground v.1.15,2013-05-10 23:30:00,
2013-05-10 19:40:00,78.4,65.7,29.95,SSW,205,0.0,0.0,65,0.00,,,0.00,Wunderground v.1.15,2013-05-10 23:40:00,
2013-05-10 19:45:00,77.9,65.2,29.95,SSW,205,0.0,0.0,65,0.00,,,0.00,Wunderground v.1.15,2013-05-10 23:45:00,
2013-05-10 19:50:00,77.5,65.2,29.95,SSW,205,0.0,0.0,66,0.00,,,0.00,Wunderground v.1.15,2013-05-10 23:50:00,
2013-05-10 19:55:00,77.1,65.7,29.95,SSW,205,0.0,0.0,68,0.00,,,0.00,Wunderground v.1.15,2013-05-10 23:55:00,
2013-05-10 20:06:00,76.2,65.3,29.95,SSW,205,0.0,0.0,69,0.00,,,0.00,Wunderground v.1.15,2013-05-11 00:06:00,
2013-05-10 20:15:00,75.3,65.2,29.95,SSW,205,0.0,0.0,71,0.00,,,0.00,Wunderground v.1.15,2013-05-11 00:15:00,
2013-05-10 20:20:00,74.9,65.3,29.95,SSW,205,0.0,0.0,72,0.00,,,0.00,Wunderground v.1.15,2013-05-11 00:20:00,
2013-05-10 20:25:00,74.4,65.2,29.96,SSW,205,0.0,0.0,73,0.00,,,0.00,Wunderground v.1.15,2013-05-11 00:25:00,
2013-05-10 20:35:00,73.6,64.4,29.95,SSW,205,0.0,0.0,73,0.00,,,0.00,Wunderground v.1.15,2013-05-11 00:35:00,
2013-05-10 20:40:00,73.3,64.5,29.95,SSW,205,0.0,0.0,74,0.00,,,0.00,Wunderground v.1.15,2013-05-11 00:40:00,
2013-05-10 20:45:00,73.0,64.6,29.96,SSW,205,0.0,0.0,75,0.00,,,0.00,Wunderground v.1.15,2013-05-11 00:45:00,
2013-05-10 20:50:00,72.6,64.2,29.96,SSW,205,0.0,0.0,75,0.00,,,0.00,Wunderground v.1.15,2013-05-11 00:50:00,
2013-05-10 21:00:00,72.1,64.1,29.96,SSW,205,0.0,0.0,76,0.00,,,0.00,Wunderground v.1.15,2013-05-11 01:00:00,
2013-05-10 21:06:00,71.8,64.2,29.96,SSW,205,0.0,0.0,77,0.00,,,0.00,Wunderground v.1.15,2013-05-11 01:06:00,
2013-05-10 21:15:00,71.3,64.1,29.96,SSW,205,0.0,0.0,78,0.00,,,0.00,Wunderground v.1.15,2013-05-11 01:15:00,
2013-05-10 21:20:00,71.2,64.4,29.97,SSW,205,0.0,0.0,79,0.00,,,0.00,Wunderground v.1.15,2013-05-11 01:20:00,
2013-05-10 21:25:00,70.9,64.4,29.97,SSW,205,0.0,0.0,80,0.00,,,0.00,Wunderground v.1.15,2013-05-11 01:25:00,
2013-05-10 21:30:00,70.8,64.3,29.97,SSW,205,0.0,0.0,80,0.00,,,0.00,Wunderground v.1.15,2013-05-11 01:30:00,
2013-05-10 21:40:00,70.8,64.3,29.98,SSW,205,0.0,0.0,80,0.00,,,0.00,Wunderground v.1.15,2013-05-11 01:40:00,
2013-05-10 21:45:00,70.8,64.3,29.98,SSW,205,0.0,0.0,80,0.00,,,0.00,Wunderground v.1.15,2013-05-11 01:45:00,
2013-05-10 21:55:00,71.3,63.7,29.98,SSW,205,0.0,0.0,77,0.00,,,0.00,Wunderground v.1.15,2013-05-11 01:55:00,
2013-05-10 22:00:00,71.8,63.8,29.97,SSW,205,0.0,0.0,76,0.00,,,0.00,Wunderground v.1.15,2013-05-11 02:00:00,
2013-05-10 22:05:00,72.2,63.8,29.98,SSW,205,0.0,0.0,75,0.00,,,0.00,Wunderground v.1.15,2013-05-11 02:05:00,
2013-05-10 22:15:00,72.8,63.6,29.98,SSW,205,0.0,0.0,73,0.00,,,0.00,Wunderground v.1.15,2013-05-11 02:15:00,
2013-05-10 22:20:00,72.9,63.7,29.98,SSW,205,0.0,0.0,73,0.00,,,0.00,Wunderground v.1.15,2013-05-11 02:20:00,
2013-05-10 22:25:00,73.0,63.8,29.98,SSW,205,0.0,0.0,73,0.00,,,0.00,Wunderground v.1.15,2013-05-11 02:25:00,
2013-05-10 22:30:00,73.2,64.4,29.98,West,261,0.0,0.0,74,0.00,,,0.00,Wunderground v.1.15,2013-05-11 02:30:00,
2013-05-10 22:35:00,73.3,64.5,29.98,West,261,0.0,0.0,74,0.00,,,0.00,Wunderground v.1.15,2013-05-11 02:35:00,
2013-05-10 22:45:00,73.1,64.7,29.98,West,261,0.0,0.0,75,0.00,,,0.00,Wunderground v.1.15,2013-05-11 02:45:00,
2013-05-10 22:50:00,73.0,64.6,29.98,West,261,0.0,0.0,75,0.00,,,0.00,Wunderground v.1.15,2013-05-11 02:50:00,
2013-05-10 23:00:00,72.6,64.6,29.97,West,261,0.0,0.0,76,0.00,,,0.00,Wunderground v.1.15,2013-05-11 03:00:00,
2013-05-10 23:06:00,72.4,64.4,29.97,West,261,0.0,0.0,76,0.00,,,0.00,Wunderground v.1.15,2013-05-11 03:06:00,
2013-05-10 23:15:00,72.2,64.6,29.97,West,261,0.0,0.0,77,0.00,,,0.00,Wunderground v.1.15,2013-05-11 03:15:00,
2013-05-10 23:20:00,72.0,64.8,29.97,West,261,0.0,0.0,78,0.00,,,0.00,Wunderground v.1.15,2013-05-11 03:20:00,
2013-05-10 23:30:00,71.9,64.7,29.96,West,261,0.0,0.0,78,0.00,,,0.00,Wunderground v.1.15,2013-05-11 03:30:00,
2013-05-10 23:35:00,71.8,64.6,29.96,West,261,0.0,0.0,78,0.00,,,0.00,Wunderground v.1.15,2013-05-11 03:35:00,
2013-05-10 23:40:00,71.6,64.4,29.96,West,261,0.0,0.0,78,0.00,,,0.00,Wunderground v.1.15,2013-05-11 03:40:00,
2013-05-10 23:45:00,71.5,64.3,29.96,West,261,0.0,0.0,78,0.00,,,0.00,Wunderground v.1.15,2013-05-11 03:45:00,
2013-05-10 23:55:00,71.3,64.4,29.96,West,261,0.0,0.0,79,0.00,,,0.00,Wunderground v.1.15,2013-05-11 03:55:00,